sensor_id;sensor_type;location;lat;lon;timestamp;P1;durP1;ratioP1;P2;durP2;ratioP2
53389;SDS011;39288;42.970;1.524;2022-09-13T00:01:00;8.97;;;2.93;;
53389;SDS011;39288;42.970;1.524;2022-09-13T00:02:01;10.40;;;3.43;;
53389;SDS011;39288;42.970;1.524;2022-09-13T00:03:01;9.83;;;4.17;;
53389;SDS011;39288;42.970;1.524;2022-09-13T00:04:02;9.00;;;3.83;;
53389;SDS011;39288;42.970;1.524;2022-09-13T00:05:03;9.43;;;4.37;;
53389;SDS011;39288;42.970;1.524;2022-09-13T00:06:11;8.67;;;3.47;;
53389;SDS011;39288;42.970;1.524;2022-09-13T00:07:19;8.82;;;3.97;;
53389;SDS011;39288;42.970;1.524;2022-09-13T00:08:20;8.67;;;4.13;;
53389;SDS011;39288;42.970;1.524;2022-09-13T00:09:21;6.57;;;4.17;;
53389;SDS011;39288;42.970;1.524;2022-09-13T00:10:21;10.73;;;4.13;;
53389;SDS011;39288;42.970;1.524;2022-09-13T00:11:23;9.63;;;4.03;;
53389;SDS011;39288;42.970;1.524;2022-09-13T00:12:25;9.43;;;4.65;;
53389;SDS011;39288;42.970;1.524;2022-09-13T00:13:25;9.13;;;4.07;;
53389;SDS011;39288;42.970;1.524;2022-09-13T00:14:26;8.40;;;4.40;;
53389;SDS011;39288;42.970;1.524;2022-09-13T00:15:27;11.35;;;4.20;;
53389;SDS011;39288;42.970;1.524;2022-09-13T00:16:28;8.90;;;4.20;;
53389;SDS011;39288;42.970;1.524;2022-09-13T00:17:29;7.30;;;3.87;;
53389;SDS011;39288;42.970;1.524;2022-09-13T00:18:30;8.83;;;3.53;;
53389;SDS011;39288;42.970;1.524;2022-09-13T00:19:30;15.17;;;3.80;;
53389;SDS011;39288;42.970;1.524;2022-09-13T00:20:30;9.77;;;3.87;;
53389;SDS011;39288;42.970;1.524;2022-09-13T00:21:31;15.13;;;4.03;;
53389;SDS011;39288;42.970;1.524;2022-09-13T00:22:31;8.93;;;4.27;;
53389;SDS011;39288;42.970;1.524;2022-09-13T00:23:32;9.97;;;3.93;;
53389;SDS011;39288;42.970;1.524;2022-09-13T00:24:33;10.47;;;3.30;;
53389;SDS011;39288;42.970;1.524;2022-09-13T00:25:33;7.53;;;3.63;;
53389;SDS011;39288;42.970;1.524;2022-09-13T00:26:34;10.37;;;4.30;;
53389;SDS011;39288;42.970;1.524;2022-09-13T00:27:35;10.97;;;4.50;;
53389;SDS011;39288;42.970;1.524;2022-09-13T00:28:36;10.45;;;3.63;;
53389;SDS011;39288;42.970;1.524;2022-09-13T00:29:37;5.37;;;3.50;;
53389;SDS011;39288;42.970;1.524;2022-09-13T00:30:37;7.93;;;4.13;;
53389;SDS011;39288;42.970;1.524;2022-09-13T00:31:38;10.67;;;4.10;;
53389;SDS011;39288;42.970;1.524;2022-09-13T00:32:38;6.27;;;3.00;;
53389;SDS011;39288;42.970;1.524;2022-09-13T00:33:39;6.53;;;3.33;;
53389;SDS011;39288;42.970;1.524;2022-09-13T00:34:39;12.60;;;3.60;;
53389;SDS011;39288;42.970;1.524;2022-09-13T00:35:40;11.93;;;3.83;;
53389;SDS011;39288;42.970;1.524;2022-09-13T00:36:40;8.97;;;3.67;;
53389;SDS011;39288;42.970;1.524;2022-09-13T00:37:41;11.37;;;4.23;;
53389;SDS011;39288;42.970;1.524;2022-09-13T00:38:41;11.63;;;3.60;;
53389;SDS011;39288;42.970;1.524;2022-09-13T00:39:42;9.70;;;4.30;;
53389;SDS011;39288;42.970;1.524;2022-09-13T00:40:43;9.00;;;3.73;;
53389;SDS011;39288;42.970;1.524;2022-09-13T00:41:43;6.97;;;3.40;;
53389;SDS011;39288;42.970;1.524;2022-09-13T00:42:43;9.90;;;3.77;;
53389;SDS011;39288;42.970;1.524;2022-09-13T00:43:51;7.00;;;3.60;;
53389;SDS011;39288;42.970;1.524;2022-09-13T00:45:00;8.93;;;3.90;;
53389;SDS011;39288;42.970;1.524;2022-09-13T00:46:04;9.73;;;4.00;;
53389;SDS011;39288;42.970;1.524;2022-09-13T00:47:05;9.23;;;4.60;;
53389;SDS011;39288;42.970;1.524;2022-09-13T00:48:05;10.63;;;3.60;;
53389;SDS011;39288;42.970;1.524;2022-09-13T00:49:14;7.88;;;3.90;;
53389;SDS011;39288;42.970;1.524;2022-09-13T00:50:32;8.68;;;3.40;;
53389;SDS011;39288;42.970;1.524;2022-09-13T00:51:35;8.63;;;3.72;;
53389;SDS011;39288;42.970;1.524;2022-09-13T00:52:36;8.93;;;4.10;;
53389;SDS011;39288;42.970;1.524;2022-09-13T00:53:38;9.02;;;4.10;;
53389;SDS011;39288;42.970;1.524;2022-09-13T00:54:43;6.63;;;3.78;;
53389;SDS011;39288;42.970;1.524;2022-09-13T00:55:56;13.27;;;3.75;;
53389;SDS011;39288;42.970;1.524;2022-09-13T00:56:58;7.63;;;3.80;;
53389;SDS011;39288;42.970;1.524;2022-09-13T00:58:05;8.30;;;3.75;;
53389;SDS011;39288;42.970;1.524;2022-09-13T00:59:12;9.70;;;4.30;;
53389;SDS011;39288;42.970;1.524;2022-09-13T01:00:16;5.40;;;3.22;;
53389;SDS011;39288;42.970;1.524;2022-09-13T01:01:18;5.30;;;3.10;;
53389;SDS011;39288;42.970;1.524;2022-09-13T01:02:21;10.90;;;4.00;;
53389;SDS011;39288;42.970;1.524;2022-09-13T01:03:22;11.87;;;4.60;;
53389;SDS011;39288;42.970;1.524;2022-09-13T01:04:25;8.55;;;3.60;;
53389;SDS011;39288;42.970;1.524;2022-09-13T01:05:32;8.60;;;4.07;;
53389;SDS011;39288;42.970;1.524;2022-09-13T01:06:36;10.73;;;4.63;;
53389;SDS011;39288;42.970;1.524;2022-09-13T01:07:37;12.00;;;4.40;;
53389;SDS011;39288;42.970;1.524;2022-09-13T01:08:38;10.53;;;4.30;;
53389;SDS011;39288;42.970;1.524;2022-09-13T01:09:42;11.65;;;4.35;;
53389;SDS011;39288;42.970;1.524;2022-09-13T01:10:44;9.75;;;4.40;;
53389;SDS011;39288;42.970;1.524;2022-09-13T01:11:52;19.30;;;4.30;;
53389;SDS011;39288;42.970;1.524;2022-09-13T01:13:00;8.38;;;3.92;;
53389;SDS011;39288;42.970;1.524;2022-09-13T01:14:10;14.13;;;4.30;;
53389;SDS011;39288;42.970;1.524;2022-09-13T01:15:10;9.40;;;4.00;;
53389;SDS011;39288;42.970;1.524;2022-09-13T01:16:11;10.57;;;4.57;;
53389;SDS011;39288;42.970;1.524;2022-09-13T01:17:11;9.63;;;4.10;;
53389;SDS011;39288;42.970;1.524;2022-09-13T01:18:12;9.70;;;4.07;;
53389;SDS011;39288;42.970;1.524;2022-09-13T01:19:13;7.47;;;3.70;;
53389;SDS011;39288;42.970;1.524;2022-09-13T01:20:13;9.93;;;3.93;;
53389;SDS011;39288;42.970;1.524;2022-09-13T01:30:14;9.60;;;3.78;;
53389;SDS011;39288;42.970;1.524;2022-09-13T01:32:34;11.52;;;4.18;;
53389;SDS011;39288;42.970;1.524;2022-09-13T01:34:00;9.85;;;4.10;;
53389;SDS011;39288;42.970;1.524;2022-09-13T01:36:49;13.65;;;4.47;;
53389;SDS011;39288;42.970;1.524;2022-09-13T01:38:00;12.27;;;4.07;;
53389;SDS011;39288;42.970;1.524;2022-09-13T01:39:14;7.38;;;3.60;;
53389;SDS011;39288;42.970;1.524;2022-09-13T01:41:39;7.63;;;3.88;;
53389;SDS011;39288;42.970;1.524;2022-09-13T01:44:38;6.72;;;4.10;;
53389;SDS011;39288;42.970;1.524;2022-09-13T01:46:50;8.70;;;3.93;;
53389;SDS011;39288;42.970;1.524;2022-09-13T01:47:58;7.82;;;3.95;;
53389;SDS011;39288;42.970;1.524;2022-09-13T01:49:13;7.20;;;3.90;;
53389;SDS011;39288;42.970;1.524;2022-09-13T01:51:54;9.82;;;4.32;;
53389;SDS011;39288;42.970;1.524;2022-09-13T01:57:56;10.43;;;4.60;;
53389;SDS011;39288;42.970;1.524;2022-09-13T01:59:17;14.30;;;4.72;;
53389;SDS011;39288;42.970;1.524;2022-09-13T02:01:29;10.18;;;4.10;;
53389;SDS011;39288;42.970;1.524;2022-09-13T02:02:18;11.38;;;4.07;;
53389;SDS011;39288;42.970;1.524;2022-09-13T02:03:21;10.98;;;4.30;;
53389;SDS011;39288;42.970;1.524;2022-09-13T02:04:29;5.07;;;3.72;;
53389;SDS011;39288;42.970;1.524;2022-09-13T02:05:37;7.68;;;3.70;;
53389;SDS011;39288;42.970;1.524;2022-09-13T02:07:04;6.10;;;3.90;;
53389;SDS011;39288;42.970;1.524;2022-09-13T02:08:12;5.95;;;4.07;;
53389;SDS011;39288;42.970;1.524;2022-09-13T02:09:20;9.25;;;4.60;;
53389;SDS011;39288;42.970;1.524;2022-09-13T02:11:52;16.17;;;4.40;;
53389;SDS011;39288;42.970;1.524;2022-09-13T02:12:58;12.68;;;5.43;;
53389;SDS011;39288;42.970;1.524;2022-09-13T02:14:03;6.65;;;4.60;;
53389;SDS011;39288;42.970;1.524;2022-09-13T02:15:14;12.25;;;4.97;;
53389;SDS011;39288;42.970;1.524;2022-09-13T02:16:35;9.55;;;5.05;;
53389;SDS011;39288;42.970;1.524;2022-09-13T02:17:40;7.77;;;4.23;;
53389;SDS011;39288;42.970;1.524;2022-09-13T02:18:45;8.57;;;3.65;;
53389;SDS011;39288;42.970;1.524;2022-09-13T02:20:51;9.00;;;4.25;;
53389;SDS011;39288;42.970;1.524;2022-09-13T02:21:55;5.75;;;4.20;;
53389;SDS011;39288;42.970;1.524;2022-09-13T02:22:58;9.27;;;4.38;;
53389;SDS011;39288;42.970;1.524;2022-09-13T02:24:10;8.77;;;4.50;;
53389;SDS011;39288;42.970;1.524;2022-09-13T02:25:15;5.70;;;3.88;;
53389;SDS011;39288;42.970;1.524;2022-09-13T02:26:16;6.30;;;3.60;;
53389;SDS011;39288;42.970;1.524;2022-09-13T02:27:19;11.20;;;4.18;;
53389;SDS011;39288;42.970;1.524;2022-09-13T02:28:43;11.45;;;4.43;;
53389;SDS011;39288;42.970;1.524;2022-09-13T02:29:44;8.25;;;4.65;;
53389;SDS011;39288;42.970;1.524;2022-09-13T02:30:47;6.88;;;4.78;;
53389;SDS011;39288;42.970;1.524;2022-09-13T02:31:53;12.02;;;5.30;;
53389;SDS011;39288;42.970;1.524;2022-09-13T02:32:56;8.65;;;4.60;;
53389;SDS011;39288;42.970;1.524;2022-09-13T02:34:02;10.13;;;4.78;;
53389;SDS011;39288;42.970;1.524;2022-09-13T02:35:12;11.48;;;4.32;;
53389;SDS011;39288;42.970;1.524;2022-09-13T02:36:16;6.28;;;4.35;;
53389;SDS011;39288;42.970;1.524;2022-09-13T02:37:20;7.00;;;3.72;;
53389;SDS011;39288;42.970;1.524;2022-09-13T02:38:24;10.77;;;3.70;;
53389;SDS011;39288;42.970;1.524;2022-09-13T02:39:27;14.80;;;4.38;;
53389;SDS011;39288;42.970;1.524;2022-09-13T02:40:31;9.75;;;4.22;;
53389;SDS011;39288;42.970;1.524;2022-09-13T02:42:55;10.27;;;4.60;;
53389;SDS011;39288;42.970;1.524;2022-09-13T02:44:03;9.15;;;4.43;;
53389;SDS011;39288;42.970;1.524;2022-09-13T02:45:08;6.75;;;4.72;;
53389;SDS011;39288;42.970;1.524;2022-09-13T02:50:43;9.13;;;4.40;;
53389;SDS011;39288;42.970;1.524;2022-09-13T02:56:36;8.27;;;4.18;;
53389;SDS011;39288;42.970;1.524;2022-09-13T02:57:05;5.47;;;3.45;;
53389;SDS011;39288;42.970;1.524;2022-09-13T02:59:26;8.45;;;4.43;;
53389;SDS011;39288;42.970;1.524;2022-09-13T03:00:26;6.57;;;4.60;;
53389;SDS011;39288;42.970;1.524;2022-09-13T03:01:28;8.38;;;4.93;;
53389;SDS011;39288;42.970;1.524;2022-09-13T03:02:30;7.47;;;4.83;;
53389;SDS011;39288;42.970;1.524;2022-09-13T03:03:31;7.28;;;4.25;;
53389;SDS011;39288;42.970;1.524;2022-09-13T03:04:32;7.23;;;4.70;;
53389;SDS011;39288;42.970;1.524;2022-09-13T03:05:33;10.55;;;4.70;;
53389;SDS011;39288;42.970;1.524;2022-09-13T03:06:34;9.80;;;4.67;;
53389;SDS011;39288;42.970;1.524;2022-09-13T03:07:34;7.10;;;4.60;;
53389;SDS011;39288;42.970;1.524;2022-09-13T03:08:35;8.67;;;5.03;;
53389;SDS011;39288;42.970;1.524;2022-09-13T03:09:36;7.68;;;5.25;;
53389;SDS011;39288;42.970;1.524;2022-09-13T03:10:53;7.32;;;5.72;;
53389;SDS011;39288;42.970;1.524;2022-09-13T03:12:08;7.20;;;4.97;;
53389;SDS011;39288;42.970;1.524;2022-09-13T03:16:09;11.60;;;5.60;;
53389;SDS011;39288;42.970;1.524;2022-09-13T03:18:47;6.57;;;4.10;;
53389;SDS011;39288;42.970;1.524;2022-09-13T03:22:41;7.55;;;4.15;;
53389;SDS011;39288;42.970;1.524;2022-09-13T03:25:36;4.57;;;3.53;;
53389;SDS011;39288;42.970;1.524;2022-09-13T03:31:06;7.40;;;5.05;;
53389;SDS011;39288;42.970;1.524;2022-09-13T03:32:25;10.98;;;5.05;;
53389;SDS011;39288;42.970;1.524;2022-09-13T03:33:41;8.13;;;4.33;;
53389;SDS011;39288;42.970;1.524;2022-09-13T03:35:07;7.57;;;4.55;;
53389;SDS011;39288;42.970;1.524;2022-09-13T03:36:20;9.52;;;5.55;;
53389;SDS011;39288;42.970;1.524;2022-09-13T03:39:59;6.65;;;4.78;;
53389;SDS011;39288;42.970;1.524;2022-09-13T03:41:06;9.25;;;5.38;;
53389;SDS011;39288;42.970;1.524;2022-09-13T03:42:12;8.75;;;4.65;;
53389;SDS011;39288;42.970;1.524;2022-09-13T03:43:19;9.70;;;4.60;;
53389;SDS011;39288;42.970;1.524;2022-09-13T03:44:23;9.27;;;4.60;;
53389;SDS011;39288;42.970;1.524;2022-09-13T03:45:26;8.43;;;5.00;;
53389;SDS011;39288;42.970;1.524;2022-09-13T03:46:29;9.40;;;4.85;;
53389;SDS011;39288;42.970;1.524;2022-09-13T03:47:44;6.57;;;4.28;;
53389;SDS011;39288;42.970;1.524;2022-09-13T03:48:45;7.80;;;4.93;;
53389;SDS011;39288;42.970;1.524;2022-09-13T03:49:46;7.33;;;4.60;;
53389;SDS011;39288;42.970;1.524;2022-09-13T03:50:48;7.53;;;4.40;;
53389;SDS011;39288;42.970;1.524;2022-09-13T03:51:49;10.50;;;4.57;;
53389;SDS011;39288;42.970;1.524;2022-09-13T03:52:51;6.13;;;4.57;;
53389;SDS011;39288;42.970;1.524;2022-09-13T03:54:00;9.50;;;4.95;;
53389;SDS011;39288;42.970;1.524;2022-09-13T03:55:05;8.95;;;4.60;;
53389;SDS011;39288;42.970;1.524;2022-09-13T03:56:12;8.23;;;4.87;;
53389;SDS011;39288;42.970;1.524;2022-09-13T03:57:17;11.13;;;5.22;;
53389;SDS011;39288;42.970;1.524;2022-09-13T03:58:21;7.82;;;4.50;;
53389;SDS011;39288;42.970;1.524;2022-09-13T03:59:22;8.85;;;5.47;;
53389;SDS011;39288;42.970;1.524;2022-09-13T04:00:22;10.77;;;5.40;;
53389;SDS011;39288;42.970;1.524;2022-09-13T04:01:23;11.93;;;4.80;;
53389;SDS011;39288;42.970;1.524;2022-09-13T04:02:24;11.25;;;4.53;;
53389;SDS011;39288;42.970;1.524;2022-09-13T04:03:25;9.43;;;4.00;;
53389;SDS011;39288;42.970;1.524;2022-09-13T04:04:26;9.23;;;4.47;;
53389;SDS011;39288;42.970;1.524;2022-09-13T04:05:26;7.67;;;4.73;;
53389;SDS011;39288;42.970;1.524;2022-09-13T04:06:27;9.07;;;4.70;;
53389;SDS011;39288;42.970;1.524;2022-09-13T04:07:27;8.13;;;4.57;;
53389;SDS011;39288;42.970;1.524;2022-09-13T04:08:28;10.10;;;4.77;;
53389;SDS011;39288;42.970;1.524;2022-09-13T04:09:29;13.68;;;5.18;;
53389;SDS011;39288;42.970;1.524;2022-09-13T04:10:31;6.40;;;5.10;;
53389;SDS011;39288;42.970;1.524;2022-09-13T04:11:32;10.07;;;5.05;;
53389;SDS011;39288;42.970;1.524;2022-09-13T04:12:32;8.57;;;5.60;;
53389;SDS011;39288;42.970;1.524;2022-09-13T04:13:34;4.57;;;3.78;;
53389;SDS011;39288;42.970;1.524;2022-09-13T04:14:35;12.60;;;4.53;;
53389;SDS011;39288;42.970;1.524;2022-09-13T04:15:36;8.50;;;5.17;;
53389;SDS011;39288;42.970;1.524;2022-09-13T04:16:36;8.37;;;4.90;;
53389;SDS011;39288;42.970;1.524;2022-09-13T04:17:37;7.43;;;4.83;;
53389;SDS011;39288;42.970;1.524;2022-09-13T04:18:37;6.73;;;4.67;;
53389;SDS011;39288;42.970;1.524;2022-09-13T04:19:38;8.77;;;4.57;;
53389;SDS011;39288;42.970;1.524;2022-09-13T04:20:39;12.00;;;5.93;;
53389;SDS011;39288;42.970;1.524;2022-09-13T04:21:39;12.17;;;5.57;;
53389;SDS011;39288;42.970;1.524;2022-09-13T04:22:40;7.43;;;4.80;;
53389;SDS011;39288;42.970;1.524;2022-09-13T04:23:41;9.33;;;4.70;;
53389;SDS011;39288;42.970;1.524;2022-09-13T04:24:41;9.30;;;4.60;;
53389;SDS011;39288;42.970;1.524;2022-09-13T04:25:43;7.53;;;5.05;;
53389;SDS011;39288;42.970;1.524;2022-09-13T04:26:43;7.23;;;5.27;;
53389;SDS011;39288;42.970;1.524;2022-09-13T04:27:48;9.98;;;4.80;;
53389;SDS011;39288;42.970;1.524;2022-09-13T04:28:52;9.45;;;5.57;;
53389;SDS011;39288;42.970;1.524;2022-09-13T04:29:53;9.83;;;5.10;;
53389;SDS011;39288;42.970;1.524;2022-09-13T04:30:53;14.50;;;5.87;;
53389;SDS011;39288;42.970;1.524;2022-09-13T04:31:54;11.33;;;6.63;;
53389;SDS011;39288;42.970;1.524;2022-09-13T04:32:55;8.47;;;6.10;;
53389;SDS011;39288;42.970;1.524;2022-09-13T04:33:55;9.77;;;6.77;;
53389;SDS011;39288;42.970;1.524;2022-09-13T04:34:56;9.57;;;6.13;;
53389;SDS011;39288;42.970;1.524;2022-09-13T04:35:57;12.68;;;8.02;;
53389;SDS011;39288;42.970;1.524;2022-09-13T04:36:58;15.55;;;9.15;;
53389;SDS011;39288;42.970;1.524;2022-09-13T04:37:59;11.83;;;8.07;;
53389;SDS011;39288;42.970;1.524;2022-09-13T04:38:59;10.47;;;5.53;;
53389;SDS011;39288;42.970;1.524;2022-09-13T04:40:00;10.43;;;5.77;;
53389;SDS011;39288;42.970;1.524;2022-09-13T04:41:01;8.27;;;4.33;;
53389;SDS011;39288;42.970;1.524;2022-09-13T04:42:02;9.87;;;4.50;;
53389;SDS011;39288;42.970;1.524;2022-09-13T04:43:02;12.77;;;4.43;;
53389;SDS011;39288;42.970;1.524;2022-09-13T04:44:03;7.33;;;4.70;;
53389;SDS011;39288;42.970;1.524;2022-09-13T04:45:04;8.53;;;5.13;;
53389;SDS011;39288;42.970;1.524;2022-09-13T04:46:05;9.63;;;5.20;;
53389;SDS011;39288;42.970;1.524;2022-09-13T04:47:06;11.40;;;5.90;;
53389;SDS011;39288;42.970;1.524;2022-09-13T04:48:07;6.88;;;4.72;;
53389;SDS011;39288;42.970;1.524;2022-09-13T04:49:10;6.30;;;4.20;;
53389;SDS011;39288;42.970;1.524;2022-09-13T04:50:11;8.15;;;5.88;;
53389;SDS011;39288;42.970;1.524;2022-09-13T04:51:11;11.83;;;5.30;;
53389;SDS011;39288;42.970;1.524;2022-09-13T04:52:13;11.95;;;5.43;;
53389;SDS011;39288;42.970;1.524;2022-09-13T04:53:14;8.83;;;4.37;;
53389;SDS011;39288;42.970;1.524;2022-09-13T04:54:14;11.77;;;5.30;;
53389;SDS011;39288;42.970;1.524;2022-09-13T04:55:15;7.40;;;5.33;;
53389;SDS011;39288;42.970;1.524;2022-09-13T04:56:16;6.27;;;5.40;;
53389;SDS011;39288;42.970;1.524;2022-09-13T04:57:18;7.93;;;5.13;;
53389;SDS011;39288;42.970;1.524;2022-09-13T04:58:19;6.90;;;5.07;;
53389;SDS011;39288;42.970;1.524;2022-09-13T04:59:20;10.55;;;5.25;;
53389;SDS011;39288;42.970;1.524;2022-09-13T05:00:20;6.57;;;5.10;;
53389;SDS011;39288;42.970;1.524;2022-09-13T05:01:21;8.87;;;5.50;;
53389;SDS011;39288;42.970;1.524;2022-09-13T05:02:22;9.23;;;6.60;;
53389;SDS011;39288;42.970;1.524;2022-09-13T05:03:23;9.27;;;5.60;;
53389;SDS011;39288;42.970;1.524;2022-09-13T05:04:23;9.60;;;5.20;;
53389;SDS011;39288;42.970;1.524;2022-09-13T05:05:24;9.67;;;5.93;;
53389;SDS011;39288;42.970;1.524;2022-09-13T05:06:24;8.23;;;6.10;;
53389;SDS011;39288;42.970;1.524;2022-09-13T05:07:25;8.50;;;6.63;;
53389;SDS011;39288;42.970;1.524;2022-09-13T05:08:25;11.60;;;7.20;;
53389;SDS011;39288;42.970;1.524;2022-09-13T05:09:26;10.33;;;8.40;;
53389;SDS011;39288;42.970;1.524;2022-09-13T05:10:27;12.40;;;7.47;;
53389;SDS011;39288;42.970;1.524;2022-09-13T05:11:27;15.73;;;8.87;;
53389;SDS011;39288;42.970;1.524;2022-09-13T05:12:29;8.93;;;7.85;;
53389;SDS011;39288;42.970;1.524;2022-09-13T05:13:31;11.73;;;8.48;;
53389;SDS011;39288;42.970;1.524;2022-09-13T05:14:32;10.93;;;8.30;;
53389;SDS011;39288;42.970;1.524;2022-09-13T05:15:34;8.98;;;7.57;;
53389;SDS011;39288;42.970;1.524;2022-09-13T05:16:34;11.87;;;8.17;;
53389;SDS011;39288;42.970;1.524;2022-09-13T05:17:35;10.90;;;8.00;;
53389;SDS011;39288;42.970;1.524;2022-09-13T05:18:35;11.73;;;8.40;;
53389;SDS011;39288;42.970;1.524;2022-09-13T05:19:36;11.60;;;8.10;;
53389;SDS011;39288;42.970;1.524;2022-09-13T05:20:36;14.57;;;8.10;;
53389;SDS011;39288;42.970;1.524;2022-09-13T05:21:36;10.50;;;7.97;;
53389;SDS011;39288;42.970;1.524;2022-09-13T05:22:37;16.03;;;7.63;;
53389;SDS011;39288;42.970;1.524;2022-09-13T05:23:37;14.70;;;7.30;;
53389;SDS011;39288;42.970;1.524;2022-09-13T05:24:38;11.53;;;7.97;;
53389;SDS011;39288;42.970;1.524;2022-09-13T05:25:38;10.13;;;7.20;;
53389;SDS011;39288;42.970;1.524;2022-09-13T05:26:39;10.10;;;7.27;;
53389;SDS011;39288;42.970;1.524;2022-09-13T05:27:39;9.03;;;7.47;;
53389;SDS011;39288;42.970;1.524;2022-09-13T05:28:40;15.50;;;7.53;;
53389;SDS011;39288;42.970;1.524;2022-09-13T05:29:40;10.03;;;7.20;;
53389;SDS011;39288;42.970;1.524;2022-09-13T05:30:41;17.77;;;7.90;;
53389;SDS011;39288;42.970;1.524;2022-09-13T05:31:41;8.77;;;7.37;;
53389;SDS011;39288;42.970;1.524;2022-09-13T05:32:42;12.77;;;7.90;;
53389;SDS011;39288;42.970;1.524;2022-09-13T05:33:43;9.17;;;7.80;;
53389;SDS011;39288;42.970;1.524;2022-09-13T05:34:44;8.05;;;6.50;;
53389;SDS011;39288;42.970;1.524;2022-09-13T05:35:45;8.20;;;7.27;;
53389;SDS011;39288;42.970;1.524;2022-09-13T05:36:45;11.53;;;7.17;;
53389;SDS011;39288;42.970;1.524;2022-09-13T05:37:47;15.90;;;7.32;;
53389;SDS011;39288;42.970;1.524;2022-09-13T05:38:48;10.80;;;7.03;;
53389;SDS011;39288;42.970;1.524;2022-09-13T05:39:49;11.30;;;7.20;;
53389;SDS011;39288;42.970;1.524;2022-09-13T05:40:55;10.30;;;7.13;;
53389;SDS011;39288;42.970;1.524;2022-09-13T05:41:57;14.75;;;7.07;;
53389;SDS011;39288;42.970;1.524;2022-09-13T05:42:58;9.60;;;6.30;;
53389;SDS011;39288;42.970;1.524;2022-09-13T05:43:58;11.03;;;6.60;;
53389;SDS011;39288;42.970;1.524;2022-09-13T05:44:59;10.57;;;7.43;;
53389;SDS011;39288;42.970;1.524;2022-09-13T05:46:08;17.90;;;8.50;;
53389;SDS011;39288;42.970;1.524;2022-09-13T05:47:11;10.52;;;7.43;;
53389;SDS011;39288;42.970;1.524;2022-09-13T05:48:12;9.93;;;7.03;;
53389;SDS011;39288;42.970;1.524;2022-09-13T05:49:13;11.70;;;6.63;;
53389;SDS011;39288;42.970;1.524;2022-09-13T05:50:14;9.10;;;6.90;;
53389;SDS011;39288;42.970;1.524;2022-09-13T05:51:18;11.10;;;6.27;;
53389;SDS011;39288;42.970;1.524;2022-09-13T05:52:19;18.13;;;6.38;;
53389;SDS011;39288;42.970;1.524;2022-09-13T05:53:20;10.60;;;6.33;;
53389;SDS011;39288;42.970;1.524;2022-09-13T05:54:21;10.03;;;6.53;;
53389;SDS011;39288;42.970;1.524;2022-09-13T05:55:21;10.70;;;6.40;;
53389;SDS011;39288;42.970;1.524;2022-09-13T05:56:23;9.37;;;5.47;;
53389;SDS011;39288;42.970;1.524;2022-09-13T05:57:24;7.18;;;5.57;;
53389;SDS011;39288;42.970;1.524;2022-09-13T05:58:25;10.10;;;6.57;;
53389;SDS011;39288;42.970;1.524;2022-09-13T05:59:25;10.27;;;6.00;;
53389;SDS011;39288;42.970;1.524;2022-09-13T06:00:26;8.63;;;5.00;;
53389;SDS011;39288;42.970;1.524;2022-09-13T06:01:27;8.90;;;5.43;;
53389;SDS011;39288;42.970;1.524;2022-09-13T06:02:31;13.05;;;6.30;;
53389;SDS011;39288;42.970;1.524;2022-09-13T06:03:31;11.98;;;6.10;;
53389;SDS011;39288;42.970;1.524;2022-09-13T06:04:32;8.57;;;5.00;;
53389;SDS011;39288;42.970;1.524;2022-09-13T06:05:32;5.90;;;5.03;;
53389;SDS011;39288;42.970;1.524;2022-09-13T06:06:33;9.57;;;5.90;;
53389;SDS011;39288;42.970;1.524;2022-09-13T06:07:34;13.30;;;5.70;;
53389;SDS011;39288;42.970;1.524;2022-09-13T06:08:35;9.53;;;5.70;;
53389;SDS011;39288;42.970;1.524;2022-09-13T06:09:36;9.87;;;5.63;;
53389;SDS011;39288;42.970;1.524;2022-09-13T06:10:36;14.73;;;5.80;;
53389;SDS011;39288;42.970;1.524;2022-09-13T06:11:37;7.27;;;4.60;;
53389;SDS011;39288;42.970;1.524;2022-09-13T06:12:37;9.80;;;4.93;;
53389;SDS011;39288;42.970;1.524;2022-09-13T06:13:38;9.80;;;6.33;;
53389;SDS011;39288;42.970;1.524;2022-09-13T06:14:39;9.82;;;5.55;;
53389;SDS011;39288;42.970;1.524;2022-09-13T06:15:39;8.27;;;4.73;;
53389;SDS011;39288;42.970;1.524;2022-09-13T06:16:40;7.00;;;5.17;;
53389;SDS011;39288;42.970;1.524;2022-09-13T06:17:40;9.90;;;5.53;;
53389;SDS011;39288;42.970;1.524;2022-09-13T06:18:41;10.50;;;5.60;;
53389;SDS011;39288;42.970;1.524;2022-09-13T06:19:42;8.38;;;5.30;;
53389;SDS011;39288;42.970;1.524;2022-09-13T06:20:43;8.88;;;5.60;;
53389;SDS011;39288;42.970;1.524;2022-09-13T06:21:44;8.47;;;5.40;;
53389;SDS011;39288;42.970;1.524;2022-09-13T06:22:46;7.23;;;5.33;;
53389;SDS011;39288;42.970;1.524;2022-09-13T06:23:47;8.60;;;5.65;;
53389;SDS011;39288;42.970;1.524;2022-09-13T06:24:51;11.18;;;5.55;;
53389;SDS011;39288;42.970;1.524;2022-09-13T06:26:26;11.17;;;6.20;;
53389;SDS011;39288;42.970;1.524;2022-09-13T06:27:22;11.68;;;5.03;;
53389;SDS011;39288;42.970;1.524;2022-09-13T06:28:23;8.43;;;5.27;;
53389;SDS011;39288;42.970;1.524;2022-09-13T06:29:26;9.48;;;5.63;;
53389;SDS011;39288;42.970;1.524;2022-09-13T06:30:27;11.83;;;5.37;;
53389;SDS011;39288;42.970;1.524;2022-09-13T06:31:27;9.27;;;5.57;;
53389;SDS011;39288;42.970;1.524;2022-09-13T06:32:28;9.50;;;5.20;;
53389;SDS011;39288;42.970;1.524;2022-09-13T06:33:28;11.67;;;5.37;;
53389;SDS011;39288;42.970;1.524;2022-09-13T06:34:29;8.97;;;5.37;;
53389;SDS011;39288;42.970;1.524;2022-09-13T06:35:29;11.70;;;5.03;;
53389;SDS011;39288;42.970;1.524;2022-09-13T06:36:30;12.97;;;6.43;;
53389;SDS011;39288;42.970;1.524;2022-09-13T06:37:31;9.37;;;5.37;;
53389;SDS011;39288;42.970;1.524;2022-09-13T06:38:31;8.70;;;5.57;;
53389;SDS011;39288;42.970;1.524;2022-09-13T06:39:32;14.67;;;5.20;;
53389;SDS011;39288;42.970;1.524;2022-09-13T06:40:33;11.07;;;4.72;;
53389;SDS011;39288;42.970;1.524;2022-09-13T06:41:33;10.03;;;5.13;;
53389;SDS011;39288;42.970;1.524;2022-09-13T06:42:34;6.73;;;4.13;;
53389;SDS011;39288;42.970;1.524;2022-09-13T06:43:36;8.95;;;4.97;;
53389;SDS011;39288;42.970;1.524;2022-09-13T06:44:37;9.85;;;5.03;;
53389;SDS011;39288;42.970;1.524;2022-09-13T06:45:37;13.97;;;5.47;;
53389;SDS011;39288;42.970;1.524;2022-09-13T06:46:38;6.63;;;4.47;;
53389;SDS011;39288;42.970;1.524;2022-09-13T06:47:39;13.10;;;5.00;;
53389;SDS011;39288;42.970;1.524;2022-09-13T06:48:40;10.10;;;5.20;;
53389;SDS011;39288;42.970;1.524;2022-09-13T06:49:41;9.25;;;4.93;;
53389;SDS011;39288;42.970;1.524;2022-09-13T06:50:42;8.83;;;4.20;;
53389;SDS011;39288;42.970;1.524;2022-09-13T06:51:43;8.88;;;4.30;;
53389;SDS011;39288;42.970;1.524;2022-09-13T06:52:44;9.00;;;4.97;;
53389;SDS011;39288;42.970;1.524;2022-09-13T06:53:45;10.57;;;4.70;;
53389;SDS011;39288;42.970;1.524;2022-09-13T06:54:47;13.45;;;5.80;;
53389;SDS011;39288;42.970;1.524;2022-09-13T06:55:47;9.87;;;5.80;;
53389;SDS011;39288;42.970;1.524;2022-09-13T06:56:48;13.47;;;4.73;;
53389;SDS011;39288;42.970;1.524;2022-09-13T06:57:48;6.57;;;3.93;;
53389;SDS011;39288;42.970;1.524;2022-09-13T06:58:49;12.40;;;3.87;;
53389;SDS011;39288;42.970;1.524;2022-09-13T06:59:52;9.90;;;4.13;;
53389;SDS011;39288;42.970;1.524;2022-09-13T07:00:53;9.70;;;3.80;;
53389;SDS011;39288;42.970;1.524;2022-09-13T07:01:53;13.83;;;4.03;;
53389;SDS011;39288;42.970;1.524;2022-09-13T07:02:54;8.90;;;3.70;;
53389;SDS011;39288;42.970;1.524;2022-09-13T07:03:58;9.67;;;3.93;;
53389;SDS011;39288;42.970;1.524;2022-09-13T07:05:00;11.13;;;4.10;;
53389;SDS011;39288;42.970;1.524;2022-09-13T07:06:05;7.20;;;3.43;;
53389;SDS011;39288;42.970;1.524;2022-09-13T07:07:06;8.85;;;3.70;;
53389;SDS011;39288;42.970;1.524;2022-09-13T07:08:07;11.63;;;4.50;;
53389;SDS011;39288;42.970;1.524;2022-09-13T07:09:09;10.77;;;3.90;;
53389;SDS011;39288;42.970;1.524;2022-09-13T07:10:11;7.47;;;3.70;;
53389;SDS011;39288;42.970;1.524;2022-09-13T07:11:12;8.13;;;4.00;;